KISP

Long Island Mac Arthur Airport

New York, New York, USA
METAR KISP 241956Z 34006KT 10SM OVC070 12/06 A3015 RMK AO2 SLP210 T01220056
Observed Flight Rules
Feb-24 @ 19:56 UTC (16 minutes ago) Visual Flight Rules
Wind Visibility Clouds
340° at 6 knots 10 miles
  • Overcast at 7,000' AGL
Temperatures Readings
Current 12°C / 54°F
Dewpoint 6°C / 43°F
Humidity 67%
Altimeter 30.15" Hg
Pressure 1021 hPa
Elevation 43
METAR KISP 241956Z 34006KT 10SM OVC070 12/06 A3015 RMK AO2 SLP210 T01220056
Observed Flight Rules
Feb-24 @ 19:56 UTC
(16 minutes ago)
VFR
Wind Visibility
340° at 6 knots 10 miles
Clouds
  • Overcast at 7,000' AGL
Temperature Dewpoint
12°C / 54°F 6°C / 43°F
Humidity Altimeter Pressure
67% 30.15" Hg 1021 hPa